Time;durP1;ratioP1;P1;durP2;ratioP2;P2;SDS_P1;SDS_P2;PMS_P1;PMS_P2;Temp;Humidity;BMP_temperature;BMP_pressure;BME280_temperature;BME280_humidity;BME280_pressure;Samples;Min_cycle;Max_cycle;Signal;HPM_P1;HPM_P2
2023/12/31 00:02:15;;;;;;;6.55;4.10;;;0.70;99.90;;;;;;5024534;28;20142;-33
2023/12/31 00:04:41;;;;;;;3.58;2.80;;;0.60;99.90;;;;;;5025462;28;20395;-34
2023/12/31 00:07:07;;;;;;;5.00;3.25;;;0.50;99.90;;;;;;5022606;28;20037;-34
2023/12/31 00:09:33;;;;;;;8.50;4.30;;;0.50;99.90;;;;;;5025534;28;20067;-38
2023/12/31 00:11:58;;;;;;;4.95;4.13;;;0.60;99.90;;;;;;5032453;28;20021;-32
2023/12/31 00:14:24;;;;;;;5.25;4.03;;;0.40;99.90;;;;;;5027268;28;20038;-33
2023/12/31 00:16:50;;;;;;;7.82;4.68;;;0.50;99.90;;;;;;5027435;28;20073;-32
2023/12/31 00:19:16;;;;;;;5.40;3.88;;;0.50;99.90;;;;;;5027815;28;20044;-34
2023/12/31 00:21:42;;;;;;;6.28;4.05;;;0.50;99.90;;;;;;5027752;28;20030;-33
2023/12/31 00:24:08;;;;;;;4.25;3.83;;;0.50;99.90;;;;;;5024576;28;20136;-35
2023/12/31 00:26:33;;;;;;;4.90;4.40;;;0.60;99.90;;;;;;5028348;28;20110;-34
2023/12/31 00:28:59;;;;;;;3.58;2.95;;;0.60;99.90;;;;;;5026854;28;20026;-32
2023/12/31 00:31:24;;;;;;;5.85;4.15;;;0.60;99.90;;;;;;5028891;28;20744;-39
2023/12/31 00:33:54;;;;;;;4.15;3.50;;;0.60;99.90;;;;;;5024101;28;20042;-38
2023/12/31 00:36:20;;;;;;;4.75;3.58;;;0.60;99.90;;;;;;5025292;28;20048;-39
2023/12/31 00:38:45;;;;;;;5.95;3.88;;;0.50;99.90;;;;;;5026003;28;20025;-39
2023/12/31 00:41:11;;;;;;;6.18;4.00;;;0.20;99.90;;;;;;5028394;28;20456;-40
2023/12/31 00:43:36;;;;;;;4.78;3.92;;;0.20;99.90;;;;;;5029530;28;20075;-39
2023/12/31 00:46:02;;;;;;;4.72;3.42;;;0.10;99.90;;;;;;5024742;28;20124;-40
2023/12/31 00:48:27;;;;;;;4.68;3.92;;;0.10;99.90;;;;;;5025725;28;20025;-38
2023/12/31 00:50:53;;;;;;;5.95;3.72;;;0.10;99.90;;;;;;5021873;28;20531;-37
2023/12/31 00:53:19;;;;;;;4.78;3.92;;;0.10;99.90;;;;;;5021674;28;20026;-37
2023/12/31 00:55:44;;;;;;;11.50;6.57;;;0.20;99.90;;;;;;5029998;28;20029;-38
2023/12/31 00:58:10;;;;;;;3.78;2.80;;;0.20;99.90;;;;;;5026867;28;20490;-39
2023/12/31 01:00:36;;;;;;;3.53;2.78;;;0.20;99.90;;;;;;5026756;28;20029;-38
2023/12/31 01:03:02;;;;;;;7.88;3.95;;;0.20;99.90;;;;;;5036659;28;20367;-37
2023/12/31 01:05:27;;;;;;;6.00;3.97;;;0.00;99.90;;;;;;5034027;28;20034;-39
2023/12/31 01:07:53;;;;;;;4.80;3.60;;;-0.10;99.90;;;;;;5027437;28;20018;-34
2023/12/31 01:10:18;;;;;;;5.22;3.80;;;0.00;99.90;;;;;;5027384;28;20029;-40
2023/12/31 01:12:44;;;;;;;5.03;3.58;;;-0.10;99.90;;;;;;5027571;28;20517;-39
2023/12/31 01:15:09;;;;;;;3.42;3.05;;;-0.10;99.90;;;;;;5028349;28;20124;-37
2023/12/31 01:17:35;;;;;;;4.75;2.78;;;0.00;99.90;;;;;;5027561;28;20045;-38
2023/12/31 01:20:01;;;;;;;5.28;3.47;;;-0.20;99.90;;;;;;5028311;28;20026;-37
2023/12/31 01:22:26;;;;;;;4.55;3.03;;;-0.20;99.90;;;;;;5032277;28;20065;-38
2023/12/31 01:24:52;;;;;;;3.55;3.30;;;-0.20;99.90;;;;;;5028274;28;20028;-35
2023/12/31 01:27:17;;;;;;;4.90;3.70;;;-0.10;99.90;;;;;;5027365;28;20553;-40
2023/12/31 01:29:43;;;;;;;6.57;3.80;;;0.00;99.90;;;;;;5029103;28;20566;-39
2023/12/31 01:32:09;;;;;;;5.57;3.55;;;0.00;99.90;;;;;;5029671;28;20041;-40
2023/12/31 01:34:34;;;;;;;5.82;3.50;;;0.20;99.90;;;;;;5026893;28;20116;-39
2023/12/31 01:37:00;;;;;;;7.63;3.45;;;0.20;99.90;;;;;;5028276;28;20037;-39
2023/12/31 01:39:26;;;;;;;7.55;3.83;;;0.20;99.90;;;;;;5035888;28;20021;-40
2023/12/31 01:41:52;;;;;;;4.82;3.78;;;0.30;99.90;;;;;;5027991;28;20742;-40
2023/12/31 01:44:17;;;;;;;6.03;3.45;;;0.20;99.90;;;;;;5024828;28;20029;-38
2023/12/31 01:46:43;;;;;;;7.60;3.30;;;0.30;99.90;;;;;;5027706;28;20025;-40
2023/12/31 01:49:10;;;;;;;5.00;3.20;;;0.30;99.90;;;;;;5026820;28;20423;-40
2023/12/31 01:51:36;;;;;;;3.95;3.42;;;0.20;99.90;;;;;;5030567;28;20083;-32
2023/12/31 01:54:05;;;;;;;4.75;3.45;;;0.10;99.90;;;;;;5026449;28;20034;-34
2023/12/31 01:56:33;;;;;;;4.22;3.35;;;0.10;99.90;;;;;;5028439;28;20025;-33
2023/12/31 01:59:00;;;;;;;3.53;3.22;;;-0.10;99.90;;;;;;5025678;28;20037;-32
2023/12/31 02:01:27;;;;;;;5.78;3.83;;;0.00;99.90;;;;;;5028172;28;20136;-33
2023/12/31 02:03:52;;;;;;;2.97;2.58;;;-0.10;99.90;;;;;;5027682;28;20029;-35
2023/12/31 02:06:18;;;;;;;5.65;3.75;;;0.00;99.90;;;;;;5025577;28;20688;-35
2023/12/31 02:08:44;;;;;;;4.18;3.10;;;0.10;99.90;;;;;;5032222;28;20036;-33
2023/12/31 02:11:10;;;;;;;3.03;2.75;;;0.10;99.90;;;;;;5028726;28;20029;-33
2023/12/31 02:13:36;;;;;;;5.47;3.80;;;0.10;99.90;;;;;;5026739;28;20512;-32
2023/12/31 02:16:02;;;;;;;5.05;3.90;;;0.00;99.90;;;;;;5027221;28;20068;-34
2023/12/31 02:18:27;;;;;;;3.17;2.83;;;-0.10;99.90;;;;;;5033118;28;20729;-34
2023/12/31 02:20:53;;;;;;;2.63;2.38;;;-0.10;99.90;;;;;;5031196;28;20026;-38
2023/12/31 02:23:18;;;;;;;2.95;2.47;;;-0.10;99.90;;;;;;5027433;28;20037;-33
2023/12/31 02:25:51;;;;;;;4.78;2.60;;;-0.30;99.90;;;;;;5027615;28;20045;-33
2023/12/31 02:28:17;;;;;;;3.58;2.53;;;-0.30;99.90;;;;;;5027833;28;20064;-35
2023/12/31 02:30:42;;;;;;;3.28;2.97;;;-0.20;99.90;;;;;;5022502;28;20491;-33
2023/12/31 02:33:08;;;;;;;3.45;2.72;;;-0.20;99.90;;;;;;5028884;28;20525;-32
2023/12/31 02:35:34;;;;;;;4.75;3.20;;;-0.20;99.90;;;;;;5026246;28;20037;-37
2023/12/31 02:38:00;;;;;;;5.70;4.10;;;-0.10;99.90;;;;;;5028512;28;20466;-34
2023/12/31 02:40:25;;;;;;;3.33;2.53;;;-0.10;99.90;;;;;;5030222;28;20155;-32
2023/12/31 02:42:51;;;;;;;4.38;3.08;;;-0.10;99.90;;;;;;5028681;28;20037;-39
2023/12/31 02:45:17;;;;;;;2.83;2.38;;;-0.10;99.90;;;;;;5029847;28;20033;-32
2023/12/31 02:47:42;;;;;;;3.13;2.78;;;-0.10;99.90;;;;;;5028886;28;20025;-34
2023/12/31 02:50:09;;;;;;;3.05;2.75;;;-0.20;99.90;;;;;;5033035;28;20467;-40
2023/12/31 02:52:36;;;;;;;5.82;3.10;;;-0.20;99.90;;;;;;5023266;28;20032;-40
2023/12/31 02:55:01;;;;;;;4.10;3.17;;;-0.20;99.90;;;;;;5027863;28;20438;-41
2023/12/31 02:57:28;;;;;;;3.47;2.47;;;-0.20;99.90;;;;;;5021779;28;20025;-38
2023/12/31 02:59:54;;;;;;;2.65;2.45;;;-0.20;99.90;;;;;;5029821;28;20017;-37
2023/12/31 03:02:19;;;;;;;5.13;3.40;;;-0.20;99.90;;;;;;5023227;28;20025;-31
2023/12/31 03:04:45;;;;;;;3.95;3.13;;;-0.20;99.90;;;;;;5033050;28;20018;-31
2023/12/31 03:07:11;;;;;;;3.80;2.95;;;-0.20;99.90;;;;;;5031051;28;20025;-30
2023/12/31 03:09:36;;;;;;;3.65;2.90;;;-0.20;99.90;;;;;;5028528;28;20498;-31
2023/12/31 03:12:02;;;;;;;3.30;3.00;;;-0.30;99.90;;;;;;5031713;28;20025;-31
2023/12/31 03:14:27;;;;;;;3.20;2.90;;;-0.30;99.90;;;;;;5032798;28;20486;-31
2023/12/31 03:16:53;;;;;;;2.92;2.45;;;-0.40;99.90;;;;;;5032172;28;20026;-33
2023/12/31 03:19:19;;;;;;;4.57;3.22;;;-0.60;99.90;;;;;;5032058;28;20103;-31
2023/12/31 03:21:44;;;;;;;3.40;2.75;;;-0.60;99.90;;;;;;5032677;28;20025;-32
2023/12/31 03:24:10;;;;;;;4.32;2.80;;;-0.60;99.90;;;;;;5030287;28;20026;-31
2023/12/31 03:26:36;;;;;;;2.88;2.60;;;-0.50;99.90;;;;;;5028434;28;20112;-32
2023/12/31 03:29:02;;;;;;;3.15;2.90;;;-0.50;99.90;;;;;;5031969;28;20057;-33
2023/12/31 03:31:28;;;;;;;2.78;2.40;;;-0.50;99.90;;;;;;5031538;28;20043;-36
2023/12/31 03:33:54;;;;;;;3.40;3.10;;;-0.50;99.90;;;;;;5031426;28;20902;-35
2023/12/31 03:36:24;;;;;;;3.25;2.95;;;-0.60;99.90;;;;;;5030591;28;20029;-32
2023/12/31 03:38:50;;;;;;;5.35;2.67;;;-0.60;99.90;;;;;;5029884;28;20033;-31
2023/12/31 03:41:15;;;;;;;4.43;2.72;;;-0.50;99.90;;;;;;5029195;28;20040;-31
2023/12/31 03:43:41;;;;;;;2.85;2.65;;;-0.50;99.90;;;;;;5031188;28;20095;-31
2023/12/31 03:46:06;;;;;;;4.15;3.30;;;-0.60;99.90;;;;;;5028238;28;20466;-30
2023/12/31 03:48:32;;;;;;;9.13;3.38;;;-0.60;99.90;;;;;;5026942;28;20122;-36
2023/12/31 03:50:58;;;;;;;4.43;2.70;;;-0.60;99.90;;;;;;5027427;28;20482;-40
2023/12/31 03:53:23;;;;;;;3.45;2.80;;;-0.60;99.90;;;;;;5028371;28;20306;-39
2023/12/31 03:55:49;;;;;;;2.78;2.58;;;-0.60;99.90;;;;;;5028012;28;20620;-40
2023/12/31 03:58:14;;;;;;;3.33;2.90;;;-0.60;99.90;;;;;;5025940;28;20040;-39
2023/12/31 04:00:40;;;;;;;5.32;2.83;;;-0.70;99.90;;;;;;5025944;28;20029;-34
2023/12/31 04:03:05;;;;;;;4.93;3.60;;;-0.70;99.90;;;;;;5026872;28;20071;-35
2023/12/31 04:05:31;;;;;;;3.10;2.80;;;-0.60;99.90;;;;;;5026698;28;20409;-33
2023/12/31 04:07:57;;;;;;;3.53;2.88;;;-0.70;99.90;;;;;;5023042;28;20047;-34
2023/12/31 04:10:22;;;;;;;5.50;2.70;;;-0.80;99.90;;;;;;5030113;28;20032;-41
2023/12/31 04:12:49;;;;;;;3.75;3.13;;;-0.70;99.90;;;;;;5024647;28;20025;-39
2023/12/31 04:15:15;;;;;;;2.47;2.38;;;-0.70;99.90;;;;;;5027276;28;20075;-39
2023/12/31 04:17:43;;;;;;;3.78;3.42;;;-0.70;99.90;;;;;;5022140;28;20485;-39
2023/12/31 04:20:10;;;;;;;3.70;3.40;;;-0.70;99.90;;;;;;5024253;28;20393;-41
2023/12/31 04:22:36;;;;;;;1.95;1.85;;;-0.70;99.90;;;;;;5021061;28;20033;-41
2023/12/31 04:25:01;;;;;;;5.22;3.08;;;-0.70;99.90;;;;;;5025652;28;20041;-39
2023/12/31 04:27:30;;;;;;;3.05;2.33;;;-0.90;99.90;;;;;;5024421;28;20172;-39
2023/12/31 04:29:56;;;;;;;3.60;2.85;;;-0.80;99.90;;;;;;5024963;28;20033;-39
2023/12/31 04:32:25;;;;;;;4.13;2.90;;;-0.90;99.90;;;;;;5024420;28;20724;-39
2023/12/31 04:34:51;;;;;;;;;;;-0.90;99.90;;;;;;5020109;28;20112;-40
2023/12/31 04:37:17;;;;;;;2.88;2.65;;;-0.90;99.90;;;;;;5018092;28;19956;-41
2023/12/31 04:39:43;;;;;;;4.70;2.60;;;-0.80;99.90;;;;;;5031842;28;20389;-38
2023/12/31 04:42:09;;;;;;;3.10;2.72;;;-0.80;99.90;;;;;;5023589;28;20398;-42
2023/12/31 04:44:36;;;;;;;2.33;2.15;;;-0.80;99.90;;;;;;5023066;28;20073;-38
2023/12/31 04:47:02;;;;;;;2.38;2.20;;;-0.80;99.90;;;;;;5022020;28;20467;-37
2023/12/31 04:49:29;;;;;;;2.60;2.38;;;-0.80;99.90;;;;;;5025783;28;20528;-36
2023/12/31 04:51:55;;;;;;;11.00;2.70;;;-0.90;99.90;;;;;;5024561;28;20670;-35
2023/12/31 04:54:21;;;;;;;3.45;2.70;;;-0.80;99.90;;;;;;5024787;28;20029;-39
2023/12/31 04:56:47;;;;;;;4.43;2.45;;;-0.80;99.90;;;;;;5025696;28;20062;-39
2023/12/31 04:59:13;;;;;;;4.05;2.72;;;-0.90;99.90;;;;;;5025592;28;20030;-40
2023/12/31 05:01:42;;;;;;;1.38;1.38;;;-1.00;99.90;;;;;;5023723;28;20029;-38
2023/12/31 05:04:11;;;;;;;3.17;2.72;;;-1.20;99.90;;;;;;5028307;28;20029;-38
2023/12/31 05:06:37;;;;;;;2.45;2.25;;;-1.20;99.90;;;;;;5024219;28;20040;-36
2023/12/31 05:09:03;;;;;;;3.05;2.60;;;-1.20;99.90;;;;;;5027525;28;20042;-40
2023/12/31 05:11:29;;;;;;;4.13;2.55;;;-1.20;99.90;;;;;;5022804;28;20043;-41
2023/12/31 05:13:56;;;;;;;2.83;2.63;;;-1.20;99.90;;;;;;5021270;28;20056;-40
2023/12/31 05:16:24;;;;;;;3.63;2.58;;;-1.20;99.90;;;;;;5024398;28;20112;-42
2023/12/31 05:18:50;;;;;;;6.90;2.55;;;-1.20;99.90;;;;;;5026635;28;20064;-40
2023/12/31 05:21:16;;;;;;;3.65;3.15;;;-1.10;99.90;;;;;;5026753;28;20018;-41
2023/12/31 05:23:42;;;;;;;3.28;2.97;;;-1.10;99.90;;;;;;5025101;28;20033;-38
2023/12/31 05:26:08;;;;;;;3.17;2.67;;;-1.10;99.90;;;;;;5022860;28;20112;-38
2023/12/31 05:28:34;;;;;;;4.45;2.25;;;-1.00;99.90;;;;;;5025111;28;20558;-41
2023/12/31 05:31:01;;;;;;;1.90;1.80;;;-0.90;99.90;;;;;;5020214;28;20053;-38
2023/12/31 05:33:27;;;;;;;3.85;2.42;;;-1.00;99.90;;;;;;5021733;28;20037;-38
2023/12/31 05:35:53;;;;;;;2.30;2.13;;;-1.00;99.90;;;;;;5021931;28;20033;-34
2023/12/31 05:38:20;;;;;;;5.63;3.10;;;-1.00;99.90;;;;;;5025357;28;20061;-36
2023/12/31 05:40:45;;;;;;;4.40;2.42;;;-1.10;99.90;;;;;;5026616;28;20502;-40
2023/12/31 05:43:12;;;;;;;3.30;2.15;;;-1.00;99.90;;;;;;5028007;28;20038;-36
2023/12/31 05:45:38;;;;;;;3.58;2.83;;;-1.00;99.90;;;;;;5040256;28;20026;-36
2023/12/31 05:48:04;;;;;;;4.03;2.63;;;-1.10;99.90;;;;;;5029492;28;20036;-42
2023/12/31 05:50:31;;;;;;;3.28;2.67;;;-1.10;99.90;;;;;;5032352;28;20040;-37
2023/12/31 05:52:57;;;;;;;3.83;2.47;;;-1.10;99.90;;;;;;5027498;28;20021;-41
2023/12/31 05:55:23;;;;;;;2.47;2.28;;;-1.30;99.90;;;;;;5046870;28;20132;-41
2023/12/31 05:57:50;;;;;;;3.38;3.15;;;-1.30;99.90;;;;;;5030406;28;20026;-32
2023/12/31 06:00:16;;;;;;;5.05;2.90;;;-1.30;99.90;;;;;;5029774;28;20018;-32
2023/12/31 06:02:42;;;;;;;4.45;3.58;;;-1.30;99.90;;;;;;5026944;28;20549;-32
2023/12/31 06:05:08;;;;;;;3.30;3.03;;;-1.30;99.90;;;;;;5031648;28;20109;-30
2023/12/31 06:07:34;;;;;;;4.55;3.40;;;-1.30;99.90;;;;;;5027987;28;20285;-33
2023/12/31 06:10:00;;;;;;;3.60;3.10;;;-1.20;99.90;;;;;;5030205;28;20506;-31
2023/12/31 06:12:26;;;;;;;4.32;3.28;;;-1.10;99.90;;;;;;5030836;28;20026;-32
2023/12/31 06:14:51;;;;;;;3.00;2.80;;;-1.10;99.90;;;;;;5031254;28;20368;-33
2023/12/31 06:17:17;;;;;;;3.25;2.95;;;-1.10;99.90;;;;;;5029131;28;20033;-32
2023/12/31 06:19:43;;;;;;;3.88;3.55;;;-1.10;99.90;;;;;;5027909;28;20064;-30
2023/12/31 06:22:09;;;;;;;10.00;3.17;;;-1.20;99.90;;;;;;5029576;28;20028;-30
2023/12/31 06:24:35;;;;;;;5.10;3.58;;;-1.20;99.90;;;;;;5031251;28;20047;-33
2023/12/31 06:27:00;;;;;;;3.83;3.47;;;-1.10;99.90;;;;;;5029950;28;20422;-32
2023/12/31 06:29:26;;;;;;;5.07;3.88;;;-1.00;99.90;;;;;;5030246;28;20033;-31
2023/12/31 06:31:52;;;;;;;5.13;3.22;;;-1.00;99.90;;;;;;5023854;28;20107;-40
2023/12/31 06:34:19;;;;;;;3.95;3.53;;;-0.90;99.90;;;;;;5007930;28;20433;-38
2023/12/31 06:36:45;;;;;;;4.00;3.60;;;-0.90;99.90;;;;;;5026614;28;20064;-38
2023/12/31 06:39:11;;;;;;;5.40;3.75;;;-0.90;99.90;;;;;;5026169;28;20021;-39
2023/12/31 06:41:38;;;;;;;5.40;3.63;;;-0.90;99.90;;;;;;5029160;28;20144;-40
2023/12/31 06:44:04;;;;;;;4.10;3.55;;;-0.90;99.90;;;;;;5028894;28;20524;-38
2023/12/31 06:46:31;;;;;;;4.30;3.38;;;-1.10;99.90;;;;;;5023637;28;20037;-39
2023/12/31 06:48:58;;;;;;;6.38;4.05;;;-1.20;99.90;;;;;;5023190;28;20059;-40
2023/12/31 06:51:24;;;;;;;5.00;3.58;;;-1.20;99.90;;;;;;5025225;28;20040;-40
2023/12/31 06:53:51;;;;;;;7.32;3.88;;;-1.10;99.90;;;;;;5030505;28;20399;-40
2023/12/31 06:56:18;;;;;;;2.60;2.30;;;-1.10;99.90;;;;;;5022377;28;20032;-40
2023/12/31 06:58:44;;;;;;;6.32;3.15;;;-1.10;99.90;;;;;;5028807;28;20040;-41
2023/12/31 07:01:10;;;;;;;5.43;3.30;;;-1.10;99.90;;;;;;5025574;28;20083;-40
2023/12/31 07:03:36;;;;;;;3.20;2.72;;;-1.10;99.90;;;;;;5027111;28;20033;-38
2023/12/31 07:06:02;;;;;;;3.38;2.78;;;-1.00;99.90;;;;;;5028293;28;20333;-35
2023/12/31 07:08:29;;;;;;;3.78;3.10;;;-0.90;99.90;;;;;;5022381;28;20885;-37
2023/12/31 07:10:56;;;;;;;3.25;2.90;;;-0.90;99.90;;;;;;5026454;28;20029;-41
2023/12/31 07:13:22;;;;;;;3.40;3.08;;;-0.90;99.90;;;;;;5038350;28;20087;-40
2023/12/31 07:15:48;;;;;;;4.95;3.53;;;-0.90;99.90;;;;;;5042778;28;20124;-41
2023/12/31 07:18:17;;;;;;;11.30;2.95;;;-0.90;99.90;;;;;;5027661;28;20035;-36
2023/12/31 07:20:43;;;;;;;2.95;2.67;;;-0.90;99.90;;;;;;5026337;28;20111;-35
2023/12/31 07:23:09;;;;;;;2.95;2.65;;;-0.80;99.90;;;;;;5026769;28;20037;-39
2023/12/31 07:25:36;;;;;;;4.32;3.08;;;-0.80;99.90;;;;;;5030114;28;20142;-39
2023/12/31 07:28:02;;;;;;;3.28;2.97;;;-0.90;99.90;;;;;;5043742;28;20487;-37
2023/12/31 07:30:28;;;;;;;4.80;3.58;;;-1.00;99.90;;;;;;5029217;28;20033;-30
2023/12/31 07:32:54;;;;;;;11.13;5.53;;;-1.00;99.90;;;;;;5027745;28;20048;-33
2023/12/31 07:35:19;;;;;;;6.18;3.97;;;-1.00;99.90;;;;;;5030645;28;20574;-32
2023/12/31 07:37:45;;;;;;;1.60;1.50;;;-0.90;99.90;;;;;;5027797;28;20075;-30
2023/12/31 07:40:11;;;;;;;0.95;0.95;;;-0.80;99.90;;;;;;5031039;28;20414;-37
2023/12/31 07:42:39;;;;;;;4.45;3.13;;;-0.90;99.90;;;;;;5024961;28;20149;-39
2023/12/31 07:45:06;;;;;;;4.88;3.40;;;-1.10;99.90;;;;;;5019996;28;20368;-40
2023/12/31 07:47:35;;;;;;;5.25;3.58;;;-1.10;99.90;;;;;;5025248;28;20029;-35
2023/12/31 07:50:03;;;;;;;3.20;2.90;;;-1.00;99.90;;;;;;5026212;28;20033;-39
2023/12/31 07:52:29;;;;;;;4.65;3.47;;;-1.00;99.90;;;;;;5029244;28;20040;-39
2023/12/31 07:54:55;;;;;;;4.47;3.28;;;-1.00;99.90;;;;;;5007452;28;20030;-39
2023/12/31 07:57:20;;;;;;;3.08;2.72;;;-1.00;99.90;;;;;;5024246;28;20380;-38
2023/12/31 07:59:46;;;;;;;1.73;1.67;;;-0.90;99.90;;;;;;5025634;28;20096;-36
2023/12/31 08:02:12;;;;;;;5.25;3.80;;;-0.80;99.90;;;;;;5026849;28;20053;-37
2023/12/31 08:04:37;;;;;;;2.30;2.08;;;-0.80;99.90;;;;;;5028264;28;20442;-40
2023/12/31 08:07:03;;;;;;;4.78;2.78;;;-0.80;99.90;;;;;;5026607;28;20033;-40
2023/12/31 08:09:29;;;;;;;2.63;2.45;;;-0.80;99.90;;;;;;5026272;28;20029;-38
2023/12/31 08:11:55;;;;;;;5.70;3.80;;;-0.80;99.90;;;;;;5025098;28;20029;-38
2023/12/31 08:14:21;;;;;;;3.75;3.22;;;-0.90;99.90;;;;;;5024472;28;20091;-39
2023/12/31 08:16:47;;;;;;;4.18;2.90;;;-0.80;99.90;;;;;;5028560;28;20059;-40
2023/12/31 08:19:13;;;;;;;4.07;3.67;;;-0.70;99.90;;;;;;5023335;28;20025;-38
2023/12/31 08:21:40;;;;;;;3.88;3.30;;;-0.60;99.90;;;;;;5027267;28;20536;-39
2023/12/31 08:24:05;;;;;;;3.67;3.03;;;-0.50;99.90;;;;;;5027940;28;20041;-40
2023/12/31 08:26:31;;;;;;;6.03;4.28;;;-0.50;99.90;;;;;;5026120;28;20033;-37
2023/12/31 08:28:58;;;;;;;4.80;3.97;;;-0.40;99.90;;;;;;5025873;28;20545;-38
2023/12/31 08:31:24;;;;;;;6.10;3.05;;;-0.30;99.90;;;;;;5022653;28;20553;-38
2023/12/31 08:33:49;;;;;;;3.22;2.75;;;-0.30;99.90;;;;;;5024860;28;20037;-39
2023/12/31 08:36:15;;;;;;;4.93;3.33;;;-0.30;99.90;;;;;;5027322;28;20048;-38
2023/12/31 08:38:40;;;;;;;4.40;2.85;;;-0.30;99.90;;;;;;5028660;28;20430;-39
2023/12/31 08:41:06;;;;;;;2.67;2.47;;;-0.20;99.90;;;;;;5031500;28;20116;-30
2023/12/31 08:43:32;;;;;;;5.15;3.05;;;-0.20;99.90;;;;;;5024997;28;20032;-35
2023/12/31 08:45:58;;;;;;;4.18;3.42;;;-0.20;99.90;;;;;;5025239;28;20030;-29
2023/12/31 08:48:23;;;;;;;3.97;3.40;;;-0.20;99.90;;;;;;5023251;28;20546;-30
2023/12/31 08:50:49;;;;;;;2.95;2.65;;;-0.20;99.90;;;;;;5020557;28;20087;-29
2023/12/31 08:53:15;;;;;;;6.10;4.72;;;-0.10;99.90;;;;;;5026780;28;20033;-30
2023/12/31 08:55:40;;;;;;;3.40;3.05;;;-0.10;99.90;;;;;;5026202;28;20036;-29
2023/12/31 08:58:06;;;;;;;4.40;3.30;;;-0.10;99.90;;;;;;5025384;28;20026;-30
2023/12/31 09:00:32;;;;;;;3.42;3.03;;;-0.10;99.90;;;;;;5021866;28;20030;-38
2023/12/31 09:02:58;;;;;;;3.72;3.38;;;-0.10;99.90;;;;;;5026136;28;20029;-30
2023/12/31 09:05:23;;;;;;;6.00;4.72;;;-0.10;99.90;;;;;;5027341;28;20025;-30
2023/12/31 09:07:49;;;;;;;4.68;2.40;;;-0.10;99.90;;;;;;5024051;28;20032;-30
2023/12/31 09:10:15;;;;;;;3.13;2.72;;;0.00;99.90;;;;;;5026052;28;20100;-30
2023/12/31 09:12:41;;;;;;;1.58;1.48;;;-0.10;99.90;;;;;;5024695;28;20033;-30
2023/12/31 09:15:07;;;;;;;2.88;2.40;;;0.00;99.90;;;;;;5031173;28;20033;-30
2023/12/31 09:17:35;;;;;;;3.33;2.67;;;0.00;99.90;;;;;;5033515;28;20022;-34
2023/12/31 09:20:05;;;;;;;5.30;3.50;;;0.00;99.90;;;;;;5030492;28;20115;-29
2023/12/31 09:22:31;;;;;;;5.25;3.92;;;0.10;99.90;;;;;;5034945;28;20368;-34
2023/12/31 09:24:57;;;;;;;3.15;2.95;;;0.10;99.90;;;;;;5035601;28;20513;-32
2023/12/31 09:27:22;;;;;;;13.75;7.38;;;0.10;99.90;;;;;;5027827;28;20060;-32
2023/12/31 09:29:48;;;;;;;3.60;3.28;;;0.20;99.90;;;;;;5031465;28;20065;-30
2023/12/31 09:32:14;;;;;;;13.90;8.18;;;0.30;99.90;;;;;;5022247;28;20037;-32
2023/12/31 09:34:40;;;;;;;14.27;8.48;;;0.30;99.90;;;;;;5018953;28;20040;-30
2023/12/31 09:37:06;;;;;;;75.82;41.35;;;0.40;99.90;;;;;;5019555;28;20116;-29
2023/12/31 09:39:31;;;;;;;21.25;12.23;;;0.40;99.90;;;;;;5027629;28;20021;-33
2023/12/31 09:42:01;;;;;;;64.53;35.63;;;0.40;99.90;;;;;;5026446;28;20030;-32
2023/12/31 09:44:27;;;;;;;23.65;13.80;;;0.50;99.90;;;;;;5021465;28;20072;-33
2023/12/31 09:47:06;;;;;;;65.57;38.85;;;0.60;99.90;;;;;;5019799;28;20058;-34
2023/12/31 09:49:34;;;;;;;23.05;13.80;;;0.70;99.90;;;;;;5025541;28;20420;-34
2023/12/31 09:52:01;;;;;;;23.63;14.63;;;0.70;99.90;;;;;;5018527;28;20045;-36
2023/12/31 09:54:29;;;;;;;7.85;5.30;;;0.80;99.90;;;;;;5023056;28;20120;-38
2023/12/31 09:56:56;;;;;;;5.95;4.25;;;0.80;99.90;;;;;;5016479;28;20034;-36
2023/12/31 09:59:24;;;;;;;7.30;5.30;;;0.90;99.90;;;;;;5018665;28;20487;-37
2023/12/31 10:01:56;;;;;;;31.60;17.02;;;0.90;99.90;;;;;;5012873;28;20520;-35
2023/12/31 10:04:23;;;;;;;11.20;5.50;;;1.00;99.90;;;;;;5018959;28;20033;-41
2023/12/31 10:06:51;;;;;;;6.80;4.22;;;1.00;99.90;;;;;;5017910;28;20021;-39
2023/12/31 10:09:24;;;;;;;6.43;4.80;;;1.10;99.90;;;;;;5018785;28;20045;-41
2023/12/31 10:11:51;;;;;;;4.70;3.05;;;1.10;99.90;;;;;;5020938;28;20376;-36
2023/12/31 10:14:17;;;;;;;5.28;4.05;;;1.20;99.90;;;;;;5020800;28;20031;-39
2023/12/31 10:16:44;;;;;;;3.67;3.33;;;1.30;99.90;;;;;;5020643;28;20727;-41
2023/12/31 10:19:11;;;;;;;3.63;2.33;;;1.30;99.90;;;;;;5015656;28;20057;-39
2023/12/31 10:21:40;;;;;;;3.97;3.58;;;1.40;99.90;;;;;;5016067;28;20026;-38
2023/12/31 10:24:06;;;;;;;5.05;4.18;;;1.50;99.90;;;;;;4999262;28;20132;-39
2023/12/31 10:26:33;;;;;;;6.38;4.78;;;1.60;99.90;;;;;;5023579;28;20036;-40
2023/12/31 10:28:59;;;;;;;4.45;4.05;;;1.60;99.90;;;;;;5012446;28;20124;-38
2023/12/31 10:31:30;;;;;;;5.28;3.97;;;1.70;99.90;;;;;;5016468;28;20046;-42
2023/12/31 10:34:18;;;;;;;5.88;4.03;;;1.80;99.90;;;;;;5026907;28;20077;-36
2023/12/31 10:36:48;;;;;;;4.57;4.13;;;1.80;99.90;;;;;;5024887;28;20111;-39
2023/12/31 10:39:36;;;;;;;6.82;3.85;;;1.80;99.90;;;;;;5029612;28;20163;-40
2023/12/31 10:42:06;;;;;;;3.83;3.38;;;1.80;99.90;;;;;;5006851;28;20025;-37
2023/12/31 10:44:36;;;;;;;4.13;3.70;;;1.90;99.90;;;;;;5026115;28;20044;-36
2023/12/31 10:47:15;;;;;;;3.63;3.15;;;1.90;99.90;;;;;;5021968;28;20052;-40
2023/12/31 10:49:58;;;;;;;8.55;3.58;;;1.90;99.90;;;;;;5028258;28;20032;-41
2023/12/31 10:52:27;;;;;;;6.10;3.85;;;2.00;99.90;;;;;;5029608;28;20108;-39
2023/12/31 10:54:55;;;;;;;3.88;3.50;;;2.10;99.90;;;;;;5026251;28;20037;-41
2023/12/31 10:57:21;;;;;;;4.80;3.53;;;2.20;99.90;;;;;;5027430;28;20022;-41
2023/12/31 10:59:48;;;;;;;4.90;4.03;;;2.30;99.90;;;;;;5020748;28;20648;-38
2023/12/31 11:02:20;;;;;;;8.05;5.10;;;2.40;99.90;;;;;;5015901;28;20026;-42
2023/12/31 11:04:47;;;;;;;11.00;5.10;;;2.40;99.90;;;;;;5013972;28;20037;-37
2023/12/31 11:07:22;;;;;;;8.52;5.00;;;2.40;99.90;;;;;;5017224;28;20113;-38
2023/12/31 11:09:48;;;;;;;9.20;6.05;;;2.50;99.90;;;;;;5019787;28;20399;-40
2023/12/31 11:12:15;;;;;;;7.65;5.70;;;2.50;99.90;;;;;;5013481;28;20041;-35
2023/12/31 11:14:56;;;;;;;9.48;6.30;;;2.70;99.90;;;;;;5031296;28;20164;-36
2023/12/31 11:17:46;;;;;;;7.88;5.60;;;2.80;99.90;;;;;;5024579;28;20087;-39
2023/12/31 11:20:39;;;;;;;8.43;5.45;;;2.90;99.90;;;;;;5016249;28;20026;-37
2023/12/31 11:23:32;;;;;;;7.80;4.53;;;3.10;99.90;;;;;;5017787;28;20037;-39
2023/12/31 11:25:59;;;;;;;4.50;3.88;;;3.20;99.90;;;;;;5017631;28;20025;-36
2023/12/31 11:28:28;;;;;;;5.47;4.45;;;3.20;99.90;;;;;;5022862;28;20041;-36
2023/12/31 11:30:58;;;;;;;7.22;5.00;;;3.30;99.90;;;;;;5019762;28;20114;-38
2023/12/31 11:33:32;;;;;;;6.32;4.40;;;3.30;99.90;;;;;;5010581;28;20183;-35
2023/12/31 11:36:07;;;;;;;8.57;4.10;;;3.30;99.90;;;;;;5019003;28;20224;-37
2023/12/31 11:39:04;;;;;;;8.82;7.25;;;3.30;99.90;;;;;;5012602;28;20018;-36
2023/12/31 11:41:39;;;;;;;7.28;4.75;;;3.40;99.90;;;;;;5022028;28;20021;-38
2023/12/31 11:44:04;;;;;;;5.07;4.18;;;3.50;99.90;;;;;;5020211;28;20861;-37
2023/12/31 11:46:37;;;;;;;6.38;4.38;;;3.60;99.90;;;;;;5013176;28;20117;-39
2023/12/31 11:49:04;;;;;;;7.82;4.55;;;3.70;99.90;;;;;;5017382;28;20867;-37
2023/12/31 11:51:54;;;;;;;7.03;4.63;;;3.80;99.90;;;;;;5017676;28;20214;-39
2023/12/31 11:54:24;;;;;;;8.13;4.30;;;3.90;99.90;;;;;;5012365;28;20172;-37
2023/12/31 11:56:53;;;;;;;9.98;4.13;;;3.90;99.90;;;;;;5013274;28;20487;-38
2023/12/31 11:59:19;;;;;;;5.88;4.38;;;4.00;99.90;;;;;;5016003;28;20041;-39
2023/12/31 12:01:45;;;;;;;6.18;4.55;;;4.10;99.90;;;;;;5013125;28;20038;-37
2023/12/31 12:04:11;;;;;;;5.05;3.85;;;4.20;99.90;;;;;;5014126;28;20609;-36
2023/12/31 12:06:38;;;;;;;5.25;3.38;;;4.40;99.90;;;;;;5016076;28;20032;-40
2023/12/31 12:09:05;;;;;;;10.57;5.50;;;4.40;99.90;;;;;;5019704;28;20037;-37
2023/12/31 12:11:31;;;;;;;14.38;7.47;;;4.50;99.90;;;;;;5018824;28;20418;-40
2023/12/31 12:13:57;;;;;;;9.52;6.55;;;4.70;99.90;;;;;;5017722;28;20383;-38
2023/12/31 12:16:23;;;;;;;7.25;5.00;;;4.80;99.90;;;;;;5012885;28;20033;-38
2023/12/31 12:18:58;;;;;;;10.05;5.57;;;5.00;99.90;;;;;;5015575;28;20037;-39
2023/12/31 12:21:24;;;;;;;10.52;5.50;;;5.20;99.90;;;;;;5016704;28;20116;-31
2023/12/31 12:23:49;;;;;;;8.65;5.78;;;5.30;99.90;;;;;;5021079;28;20509;-29
2023/12/31 12:26:16;;;;;;;9.40;6.80;;;5.30;99.90;;;;;;5014461;28;20025;-31
2023/12/31 12:28:41;;;;;;;9.40;6.40;;;5.40;99.90;;;;;;5017207;28;20034;-29
2023/12/31 12:31:07;;;;;;;12.07;6.50;;;5.40;99.90;;;;;;5013044;28;20037;-36
2023/12/31 12:33:33;;;;;;;10.20;5.93;;;5.50;99.90;;;;;;5022109;28;20533;-34
2023/12/31 12:35:58;;;;;;;10.40;6.22;;;5.60;99.90;;;;;;5019715;28;20026;-29
2023/12/31 12:38:25;;;;;;;9.15;5.95;;;5.60;99.90;;;;;;5018804;28;20037;-31
2023/12/31 12:41:02;;;;;;;8.07;5.65;;;5.70;99.90;;;;;;5012970;28;20032;-32
2023/12/31 12:43:31;;;;;;;8.73;5.70;;;5.70;99.90;;;;;;5018247;28;20490;-29
2023/12/31 12:46:06;;;;;;;9.15;6.05;;;5.80;99.90;;;;;;5016025;28;20030;-32
2023/12/31 12:48:33;;;;;;;7.90;5.95;;;5.90;99.90;;;;;;5020009;28;20047;-34
2023/12/31 12:50:59;;;;;;;10.38;6.55;;;6.00;99.90;;;;;;5022374;28;20367;-30